sensor_id;sensor_type;location;lat;lon;timestamp;temperature;humidity
67275;DHT22;55463;52.324;5.122;2024-03-25T00:01:13;5.62;97.54
67275;DHT22;55463;52.324;5.122;2024-03-25T00:03:38;5.58;97.55
67275;DHT22;55463;52.324;5.122;2024-03-25T00:06:04;5.55;97.51
67275;DHT22;55463;52.324;5.122;2024-03-25T00:08:29;5.49;97.54
67275;DHT22;55463;52.324;5.122;2024-03-25T00:10:55;5.49;97.54
67275;DHT22;55463;52.324;5.122;2024-03-25T00:13:20;5.45;97.54
67275;DHT22;55463;52.324;5.122;2024-03-25T00:15:46;5.40;97.66
67275;DHT22;55463;52.324;5.122;2024-03-25T00:18:11;5.38;97.68
67275;DHT22;55463;52.324;5.122;2024-03-25T00:20:37;5.37;97.52
67275;DHT22;55463;52.324;5.122;2024-03-25T00:23:02;5.31;97.32
67275;DHT22;55463;52.324;5.122;2024-03-25T00:25:28;5.24;97.30
67275;DHT22;55463;52.324;5.122;2024-03-25T00:27:53;5.21;97.40
67275;DHT22;55463;52.324;5.122;2024-03-25T00:30:19;5.16;97.28
67275;DHT22;55463;52.324;5.122;2024-03-25T00:32:44;5.13;97.33
67275;DHT22;55463;52.324;5.122;2024-03-25T00:35:10;5.07;97.28
67275;DHT22;55463;52.324;5.122;2024-03-25T00:37:35;5.03;97.14
67275;DHT22;55463;52.324;5.122;2024-03-25T00:40:01;4.95;97.27
67275;DHT22;55463;52.324;5.122;2024-03-25T00:42:26;4.93;97.32
67275;DHT22;55463;52.324;5.122;2024-03-25T00:44:52;4.90;97.26
67275;DHT22;55463;52.324;5.122;2024-03-25T00:47:17;4.85;97.28
67275;DHT22;55463;52.324;5.122;2024-03-25T00:49:42;4.78;97.13
67275;DHT22;55463;52.324;5.122;2024-03-25T00:52:08;4.73;97.30
67275;DHT22;55463;52.324;5.122;2024-03-25T00:54:33;4.68;97.35
67275;DHT22;55463;52.324;5.122;2024-03-25T00:56:58;4.64;97.49
67275;DHT22;55463;52.324;5.122;2024-03-25T00:59:24;4.61;97.40
67275;DHT22;55463;52.324;5.122;2024-03-25T01:01:49;4.54;97.31
67275;DHT22;55463;52.324;5.122;2024-03-25T01:04:15;4.47;97.54
67275;DHT22;55463;52.324;5.122;2024-03-25T01:06:40;4.45;97.66
67275;DHT22;55463;52.324;5.122;2024-03-25T01:09:06;4.42;97.72
67275;DHT22;55463;52.324;5.122;2024-03-25T01:11:33;4.41;97.93
67275;DHT22;55463;52.324;5.122;2024-03-25T01:13:58;4.42;98.07
67275;DHT22;55463;52.324;5.122;2024-03-25T01:16:23;4.41;98.12
67275;DHT22;55463;52.324;5.122;2024-03-25T01:18:49;4.41;98.12
67275;DHT22;55463;52.324;5.122;2024-03-25T01:21:14;4.36;98.19
67275;DHT22;55463;52.324;5.122;2024-03-25T01:23:40;4.33;98.31
67275;DHT22;55463;52.324;5.122;2024-03-25T01:26:06;4.33;98.41
67275;DHT22;55463;52.324;5.122;2024-03-25T01:28:31;4.31;98.44
67275;DHT22;55463;52.324;5.122;2024-03-25T01:30:57;4.33;98.64
67275;DHT22;55463;52.324;5.122;2024-03-25T01:33:22;4.31;98.52
67275;DHT22;55463;52.324;5.122;2024-03-25T01:35:47;4.30;98.44
67275;DHT22;55463;52.324;5.122;2024-03-25T01:38:13;4.30;98.57
67275;DHT22;55463;52.324;5.122;2024-03-25T01:40:38;4.24;98.36
67275;DHT22;55463;52.324;5.122;2024-03-25T01:43:04;4.27;98.45
67275;DHT22;55463;52.324;5.122;2024-03-25T01:45:33;4.24;98.21
67275;DHT22;55463;52.324;5.122;2024-03-25T01:48:02;4.24;98.37
67275;DHT22;55463;52.324;5.122;2024-03-25T01:50:28;4.20;98.41
67275;DHT22;55463;52.324;5.122;2024-03-25T01:52:54;4.20;98.65
67275;DHT22;55463;52.324;5.122;2024-03-25T01:55:26;4.18;98.45
67275;DHT22;55463;52.324;5.122;2024-03-25T01:57:52;4.14;98.73
67275;DHT22;55463;52.324;5.122;2024-03-25T02:00:18;4.20;98.88
67275;DHT22;55463;52.324;5.122;2024-03-25T02:02:44;4.20;99.22
67275;DHT22;55463;52.324;5.122;2024-03-25T02:05:18;4.23;98.91
67275;DHT22;55463;52.324;5.122;2024-03-25T02:07:44;4.25;99.29
67275;DHT22;55463;52.324;5.122;2024-03-25T02:10:10;4.31;99.23
67275;DHT22;55463;52.324;5.122;2024-03-25T02:12:40;4.34;99.06
67275;DHT22;55463;52.324;5.122;2024-03-25T02:15:07;4.37;99.23
67275;DHT22;55463;52.324;5.122;2024-03-25T02:17:33;4.41;99.47
67275;DHT22;55463;52.324;5.122;2024-03-25T02:19:58;4.45;99.46
67275;DHT22;55463;52.324;5.122;2024-03-25T02:22:24;4.49;99.06
67275;DHT22;55463;52.324;5.122;2024-03-25T02:24:51;4.54;98.99
67275;DHT22;55463;52.324;5.122;2024-03-25T02:27:18;4.58;98.68
67275;DHT22;55463;52.324;5.122;2024-03-25T02:29:43;4.57;98.48
67275;DHT22;55463;52.324;5.122;2024-03-25T02:32:09;4.55;98.51
67275;DHT22;55463;52.324;5.122;2024-03-25T02:34:39;4.57;98.63
67275;DHT22;55463;52.324;5.122;2024-03-25T02:37:06;4.54;98.58
67275;DHT22;55463;52.324;5.122;2024-03-25T02:39:32;4.54;98.51
67275;DHT22;55463;52.324;5.122;2024-03-25T02:41:58;4.54;98.64
67275;DHT22;55463;52.324;5.122;2024-03-25T02:44:24;4.54;98.64
67275;DHT22;55463;52.324;5.122;2024-03-25T02:46:49;4.51;98.70
67275;DHT22;55463;52.324;5.122;2024-03-25T02:49:15;4.51;98.54
67275;DHT22;55463;52.324;5.122;2024-03-25T02:51:40;4.49;98.58
67275;DHT22;55463;52.324;5.122;2024-03-25T02:54:06;4.48;98.57
67275;DHT22;55463;52.324;5.122;2024-03-25T02:56:34;4.51;98.68
67275;DHT22;55463;52.324;5.122;2024-03-25T02:58:59;4.49;98.66
67275;DHT22;55463;52.324;5.122;2024-03-25T03:01:24;4.48;98.68
67275;DHT22;55463;52.324;5.122;2024-03-25T03:03:50;4.55;98.68
67275;DHT22;55463;52.324;5.122;2024-03-25T03:06:15;4.51;98.84
67275;DHT22;55463;52.324;5.122;2024-03-25T03:08:41;4.52;98.69
67275;DHT22;55463;52.324;5.122;2024-03-25T03:11:06;4.48;98.61
67275;DHT22;55463;52.324;5.122;2024-03-25T03:13:31;4.48;98.49
67275;DHT22;55463;52.324;5.122;2024-03-25T03:15:57;4.44;98.65
67275;DHT22;55463;52.324;5.122;2024-03-25T03:18:22;4.42;98.61
67275;DHT22;55463;52.324;5.122;2024-03-25T03:20:48;4.40;98.57
67275;DHT22;55463;52.324;5.122;2024-03-25T03:23:14;4.36;98.74
67275;DHT22;55463;52.324;5.122;2024-03-25T03:25:40;4.33;98.86
67275;DHT22;55463;52.324;5.122;2024-03-25T03:28:06;4.30;98.87
67275;DHT22;55463;52.324;5.122;2024-03-25T03:30:31;4.27;98.83
67275;DHT22;55463;52.324;5.122;2024-03-25T03:32:56;4.25;98.85
67275;DHT22;55463;52.324;5.122;2024-03-25T03:35:22;4.25;98.92
67275;DHT22;55463;52.324;5.122;2024-03-25T03:37:47;4.24;99.04
67275;DHT22;55463;52.324;5.122;2024-03-25T03:40:13;4.20;98.93
67275;DHT22;55463;52.324;5.122;2024-03-25T03:42:39;4.20;99.02
67275;DHT22;55463;52.324;5.122;2024-03-25T03:45:05;4.14;99.25
67275;DHT22;55463;52.324;5.122;2024-03-25T03:47:31;4.16;99.18
67275;DHT22;55463;52.324;5.122;2024-03-25T03:49:56;4.16;99.25
67275;DHT22;55463;52.324;5.122;2024-03-25T03:52:22;4.13;99.15
67275;DHT22;55463;52.324;5.122;2024-03-25T03:54:51;4.09;99.20
67275;DHT22;55463;52.324;5.122;2024-03-25T03:57:16;4.06;99.22
67275;DHT22;55463;52.324;5.122;2024-03-25T03:59:41;4.00;99.08
67275;DHT22;55463;52.324;5.122;2024-03-25T04:02:07;3.96;99.12
67275;DHT22;55463;52.324;5.122;2024-03-25T04:04:33;3.93;99.07
67275;DHT22;55463;52.324;5.122;2024-03-25T04:07:01;3.86;98.75
67275;DHT22;55463;52.324;5.122;2024-03-25T04:09:27;3.85;99.05
67275;DHT22;55463;52.324;5.122;2024-03-25T04:11:54;3.82;99.20
67275;DHT22;55463;52.324;5.122;2024-03-25T04:14:20;3.78;99.23
67275;DHT22;55463;52.324;5.122;2024-03-25T04:16:45;3.75;99.36
67275;DHT22;55463;52.324;5.122;2024-03-25T04:19:12;3.71;99.44
67275;DHT22;55463;52.324;5.122;2024-03-25T04:21:38;3.68;99.23
67275;DHT22;55463;52.324;5.122;2024-03-25T04:24:04;3.62;99.17
67275;DHT22;55463;52.324;5.122;2024-03-25T04:26:30;3.58;98.71
67275;DHT22;55463;52.324;5.122;2024-03-25T04:28:55;3.55;99.28
67275;DHT22;55463;52.324;5.122;2024-03-25T04:31:21;3.52;99.54
67275;DHT22;55463;52.324;5.122;2024-03-25T04:33:46;3.57;99.81
67275;DHT22;55463;52.324;5.122;2024-03-25T04:36:12;3.54;99.83
67275;DHT22;55463;52.324;5.122;2024-03-25T04:38:38;3.52;99.81
67275;DHT22;55463;52.324;5.122;2024-03-25T04:41:04;3.51;99.90
67275;DHT22;55463;52.324;5.122;2024-03-25T04:43:29;3.48;99.71
67275;DHT22;55463;52.324;5.122;2024-03-25T04:45:55;3.48;99.97
67275;DHT22;55463;52.324;5.122;2024-03-25T04:48:20;3.47;99.93
67275;DHT22;55463;52.324;5.122;2024-03-25T04:50:46;3.47;99.96
67275;DHT22;55463;52.324;5.122;2024-03-25T04:53:11;3.47;99.99
67275;DHT22;55463;52.324;5.122;2024-03-25T04:55:37;3.47;99.99
67275;DHT22;55463;52.324;5.122;2024-03-25T04:58:02;3.47;99.99
67275;DHT22;55463;52.324;5.122;2024-03-25T05:00:28;3.47;99.99
67275;DHT22;55463;52.324;5.122;2024-03-25T05:02:53;3.45;99.99
67275;DHT22;55463;52.324;5.122;2024-03-25T05:05:19;3.50;99.99
67275;DHT22;55463;52.324;5.122;2024-03-25T05:07:44;3.48;99.99
67275;DHT22;55463;52.324;5.122;2024-03-25T05:10:10;3.48;99.99
67275;DHT22;55463;52.324;5.122;2024-03-25T05:12:35;3.50;99.99
67275;DHT22;55463;52.324;5.122;2024-03-25T05:15:01;3.48;99.99
67275;DHT22;55463;52.324;5.122;2024-03-25T05:17:26;3.47;99.99
67275;DHT22;55463;52.324;5.122;2024-03-25T05:19:52;3.47;99.99
67275;DHT22;55463;52.324;5.122;2024-03-25T05:22:17;3.44;99.99
67275;DHT22;55463;52.324;5.122;2024-03-25T05:24:42;3.41;99.99
67275;DHT22;55463;52.324;5.122;2024-03-25T05:27:08;3.40;99.99
67275;DHT22;55463;52.324;5.122;2024-03-25T05:29:33;3.41;99.99
67275;DHT22;55463;52.324;5.122;2024-03-25T05:32:02;3.44;99.99
67275;DHT22;55463;52.324;5.122;2024-03-25T05:34:28;3.45;99.99
67275;DHT22;55463;52.324;5.122;2024-03-25T05:36:54;3.47;99.99
67275;DHT22;55463;52.324;5.122;2024-03-25T05:39:19;3.44;99.99
67275;DHT22;55463;52.324;5.122;2024-03-25T05:41:46;3.44;99.99
67275;DHT22;55463;52.324;5.122;2024-03-25T05:44:12;3.42;99.99
67275;DHT22;55463;52.324;5.122;2024-03-25T05:46:39;3.41;99.99
67275;DHT22;55463;52.324;5.122;2024-03-25T05:49:05;3.41;99.99
67275;DHT22;55463;52.324;5.122;2024-03-25T05:51:31;3.38;99.99
67275;DHT22;55463;52.324;5.122;2024-03-25T05:53:58;3.38;99.99
67275;DHT22;55463;52.324;5.122;2024-03-25T05:56:24;3.35;99.99
67275;DHT22;55463;52.324;5.122;2024-03-25T05:58:55;3.37;99.99
67275;DHT22;55463;52.324;5.122;2024-03-25T06:01:21;3.38;99.99
67275;DHT22;55463;52.324;5.122;2024-03-25T06:03:46;3.40;99.99
67275;DHT22;55463;52.324;5.122;2024-03-25T06:06:12;3.44;99.99
67275;DHT22;55463;52.324;5.122;2024-03-25T06:08:37;3.45;99.99
67275;DHT22;55463;52.324;5.122;2024-03-25T06:11:03;3.45;99.99
67275;DHT22;55463;52.324;5.122;2024-03-25T06:13:28;3.48;99.99
67275;DHT22;55463;52.324;5.122;2024-03-25T06:15:54;3.50;99.99
67275;DHT22;55463;52.324;5.122;2024-03-25T06:18:19;3.55;99.99
67275;DHT22;55463;52.324;5.122;2024-03-25T06:20:45;3.58;99.99
67275;DHT22;55463;52.324;5.122;2024-03-25T06:23:10;3.62;99.99
67275;DHT22;55463;52.324;5.122;2024-03-25T06:25:36;3.67;99.99
67275;DHT22;55463;52.324;5.122;2024-03-25T06:28:03;3.72;99.99
67275;DHT22;55463;52.324;5.122;2024-03-25T06:30:28;3.75;99.99
67275;DHT22;55463;52.324;5.122;2024-03-25T06:33:12;3.85;99.99
67275;DHT22;55463;52.324;5.122;2024-03-25T06:35:56;3.92;99.99
67275;DHT22;55463;52.324;5.122;2024-03-25T06:38:22;3.96;99.99
67275;DHT22;55463;52.324;5.122;2024-03-25T06:40:47;4.02;99.99
67275;DHT22;55463;52.324;5.122;2024-03-25T06:43:13;4.10;99.99
67275;DHT22;55463;52.324;5.122;2024-03-25T06:45:39;4.16;99.99
67275;DHT22;55463;52.324;5.122;2024-03-25T06:48:05;4.17;99.99
67275;DHT22;55463;52.324;5.122;2024-03-25T06:50:30;4.24;99.99
67275;DHT22;55463;52.324;5.122;2024-03-25T06:52:56;4.30;99.99
67275;DHT22;55463;52.324;5.122;2024-03-25T06:55:21;4.34;99.99
67275;DHT22;55463;52.324;5.122;2024-03-25T06:57:50;4.41;99.99
67275;DHT22;55463;52.324;5.122;2024-03-25T07:00:15;4.44;99.99
67275;DHT22;55463;52.324;5.122;2024-03-25T07:02:41;4.52;99.99
67275;DHT22;55463;52.324;5.122;2024-03-25T07:05:07;4.59;99.99
67275;DHT22;55463;52.324;5.122;2024-03-25T07:07:33;4.68;99.99
67275;DHT22;55463;52.324;5.122;2024-03-25T07:09:59;4.75;99.99
67275;DHT22;55463;52.324;5.122;2024-03-25T07:12:24;4.80;99.99
67275;DHT22;55463;52.324;5.122;2024-03-25T07:14:50;4.87;99.99
67275;DHT22;55463;52.324;5.122;2024-03-25T07:17:15;4.96;99.99
67275;DHT22;55463;52.324;5.122;2024-03-25T07:19:41;5.07;99.99
67275;DHT22;55463;52.324;5.122;2024-03-25T07:22:06;5.19;99.99
67275;DHT22;55463;52.324;5.122;2024-03-25T07:24:32;5.31;99.99
67275;DHT22;55463;52.324;5.122;2024-03-25T07:26:57;5.45;99.99
67275;DHT22;55463;52.324;5.122;2024-03-25T07:29:23;5.55;99.99
67275;DHT22;55463;52.324;5.122;2024-03-25T07:31:48;5.70;99.99
67275;DHT22;55463;52.324;5.122;2024-03-25T07:34:13;5.80;99.99
67275;DHT22;55463;52.324;5.122;2024-03-25T07:36:39;5.97;99.99
67275;DHT22;55463;52.324;5.122;2024-03-25T07:39:05;6.10;99.99
67275;DHT22;55463;52.324;5.122;2024-03-25T07:41:38;6.28;99.80
67275;DHT22;55463;52.324;5.122;2024-03-25T07:44:04;6.41;99.19
67275;DHT22;55463;52.324;5.122;2024-03-25T07:46:30;6.61;99.32
67275;DHT22;55463;52.324;5.122;2024-03-25T07:48:55;6.77;99.43
67275;DHT22;55463;52.324;5.122;2024-03-25T07:51:20;6.99;99.11
67275;DHT22;55463;52.324;5.122;2024-03-25T07:53:46;7.20;98.16
67275;DHT22;55463;52.324;5.122;2024-03-25T07:56:11;7.38;97.68
67275;DHT22;55463;52.324;5.122;2024-03-25T07:58:37;7.62;96.75
67275;DHT22;55463;52.324;5.122;2024-03-25T08:01:02;7.90;97.78
67275;DHT22;55463;52.324;5.122;2024-03-25T08:03:27;8.18;97.87
67275;DHT22;55463;52.324;5.122;2024-03-25T08:05:53;8.34;96.53
67275;DHT22;55463;52.324;5.122;2024-03-25T08:08:18;8.49;96.86
67275;DHT22;55463;52.324;5.122;2024-03-25T08:10:46;8.75;96.79
67275;DHT22;55463;52.324;5.122;2024-03-25T08:13:11;8.93;94.09
67275;DHT22;55463;52.324;5.122;2024-03-25T08:15:36;9.27;93.68
67275;DHT22;55463;52.324;5.122;2024-03-25T08:18:02;9.56;93.27
67275;DHT22;55463;52.324;5.122;2024-03-25T08:20:28;9.87;93.56
67275;DHT22;55463;52.324;5.122;2024-03-25T08:22:53;10.24;93.13
67275;DHT22;55463;52.324;5.122;2024-03-25T08:25:18;10.45;90.74
67275;DHT22;55463;52.324;5.122;2024-03-25T08:27:44;10.70;89.74
67275;DHT22;55463;52.324;5.122;2024-03-25T08:30:10;10.80;87.77
67275;DHT22;55463;52.324;5.122;2024-03-25T08:32:35;11.10;87.95
67275;DHT22;55463;52.324;5.122;2024-03-25T08:35:01;11.42;88.87
67275;DHT22;55463;52.324;5.122;2024-03-25T08:37:26;11.66;86.04
67275;DHT22;55463;52.324;5.122;2024-03-25T08:39:51;11.87;85.38
67275;DHT22;55463;52.324;5.122;2024-03-25T08:42:17;12.13;84.16
67275;DHT22;55463;52.324;5.122;2024-03-25T08:44:42;12.50;85.51
67275;DHT22;55463;52.324;5.122;2024-03-25T08:47:07;12.81;84.26
67275;DHT22;55463;52.324;5.122;2024-03-25T08:49:33;13.19;85.13
67275;DHT22;55463;52.324;5.122;2024-03-25T08:51:58;13.59;85.53
67275;DHT22;55463;52.324;5.122;2024-03-25T08:54:24;14.01;81.67
67275;DHT22;55463;52.324;5.122;2024-03-25T08:56:49;14.43;83.75
67275;DHT22;55463;52.324;5.122;2024-03-25T08:59:15;14.70;80.49
67275;DHT22;55463;52.324;5.122;2024-03-25T09:01:40;15.05;80.54
67275;DHT22;55463;52.324;5.122;2024-03-25T09:04:05;15.41;79.44
67275;DHT22;55463;52.324;5.122;2024-03-25T09:06:31;15.71;77.19
67275;DHT22;55463;52.324;5.122;2024-03-25T09:08:57;16.00;77.45
67275;DHT22;55463;52.324;5.122;2024-03-25T09:11:40;16.32;78.34
67275;DHT22;55463;52.324;5.122;2024-03-25T09:14:06;16.38;73.90
67275;DHT22;55463;52.324;5.122;2024-03-25T09:16:31;16.65;76.11
67275;DHT22;55463;52.324;5.122;2024-03-25T09:18:57;16.63;74.22
67275;DHT22;55463;52.324;5.122;2024-03-25T09:21:22;16.21;72.50
67275;DHT22;55463;52.324;5.122;2024-03-25T09:23:49;16.20;73.16
67275;DHT22;55463;52.324;5.122;2024-03-25T09:26:15;16.25;72.01
67275;DHT22;55463;52.324;5.122;2024-03-25T09:28:40;16.44;72.00
67275;DHT22;55463;52.324;5.122;2024-03-25T09:31:06;16.53;72.59
67275;DHT22;55463;52.324;5.122;2024-03-25T09:33:31;16.63;71.45
67275;DHT22;55463;52.324;5.122;2024-03-25T09:35:56;16.79;69.65
67275;DHT22;55463;52.324;5.122;2024-03-25T09:38:22;17.14;72.66
67275;DHT22;55463;52.324;5.122;2024-03-25T09:40:47;17.59;73.43
67275;DHT22;55463;52.324;5.122;2024-03-25T09:43:19;17.67;71.15
67275;DHT22;55463;52.324;5.122;2024-03-25T09:45:47;17.45;69.14
67275;DHT22;55463;52.324;5.122;2024-03-25T09:48:15;17.80;73.05
67275;DHT22;55463;52.324;5.122;2024-03-25T09:50:42;17.82;70.48
67275;DHT22;55463;52.324;5.122;2024-03-25T09:53:09;17.93;70.94
67275;DHT22;55463;52.324;5.122;2024-03-25T09:55:34;17.83;69.73
67275;DHT22;55463;52.324;5.122;2024-03-25T09:58:00;17.76;68.82
67275;DHT22;55463;52.324;5.122;2024-03-25T10:00:26;17.49;68.12
67275;DHT22;55463;52.324;5.122;2024-03-25T10:02:51;17.04;67.85
67275;DHT22;55463;52.324;5.122;2024-03-25T10:05:17;16.90;70.14
67275;DHT22;55463;52.324;5.122;2024-03-25T10:07:42;16.49;69.12
67275;DHT22;55463;52.324;5.122;2024-03-25T10:10:08;16.46;70.36
67275;DHT22;55463;52.324;5.122;2024-03-25T10:12:36;16.29;70.03
67275;DHT22;55463;52.324;5.122;2024-03-25T10:15:01;16.24;71.31
67275;DHT22;55463;52.324;5.122;2024-03-25T10:17:27;16.31;70.41
67275;DHT22;55463;52.324;5.122;2024-03-25T10:19:55;16.52;70.93
67275;DHT22;55463;52.324;5.122;2024-03-25T10:22:21;16.62;71.46
67275;DHT22;55463;52.324;5.122;2024-03-25T10:24:47;16.59;68.97
67275;DHT22;55463;52.324;5.122;2024-03-25T10:27:23;16.79;70.64
67275;DHT22;55463;52.324;5.122;2024-03-25T10:29:52;16.66;69.20
67275;DHT22;55463;52.324;5.122;2024-03-25T10:32:18;16.41;69.97
67275;DHT22;55463;52.324;5.122;2024-03-25T10:34:44;16.21;67.83
67275;DHT22;55463;52.324;5.122;2024-03-25T10:37:10;16.01;69.54
67275;DHT22;55463;52.324;5.122;2024-03-25T10:39:49;15.80;68.89
67275;DHT22;55463;52.324;5.122;2024-03-25T10:42:19;15.77;69.07
67275;DHT22;55463;52.324;5.122;2024-03-25T10:44:45;15.90;70.22
67275;DHT22;55463;52.324;5.122;2024-03-25T10:47:17;16.01;69.98
67275;DHT22;55463;52.324;5.122;2024-03-25T10:49:49;16.29;70.98
67275;DHT22;55463;52.324;5.122;2024-03-25T10:52:15;16.52;68.75
67275;DHT22;55463;52.324;5.122;2024-03-25T10:54:46;16.66;71.17
67275;DHT22;55463;52.324;5.122;2024-03-25T10:57:13;16.83;70.09
67275;DHT22;55463;52.324;5.122;2024-03-25T10:59:38;16.99;69.42
67275;DHT22;55463;52.324;5.122;2024-03-25T11:02:07;17.34;70.27
67275;DHT22;55463;52.324;5.122;2024-03-25T11:04:33;17.70;70.22
67275;DHT22;55463;52.324;5.122;2024-03-25T11:07:09;17.98;68.69
67275;DHT22;55463;52.324;5.122;2024-03-25T11:09:34;18.22;69.91
67275;DHT22;55463;52.324;5.122;2024-03-25T11:12:01;18.69;70.21
67275;DHT22;55463;52.324;5.122;2024-03-25T11:14:26;18.93;65.50
67275;DHT22;55463;52.324;5.122;2024-03-25T11:16:53;18.96;65.79
67275;DHT22;55463;52.324;5.122;2024-03-25T11:19:20;19.21;65.79
67275;DHT22;55463;52.324;5.122;2024-03-25T11:21:46;19.53;65.41
67275;DHT22;55463;52.324;5.122;2024-03-25T11:24:12;19.83;64.89
67275;DHT22;55463;52.324;5.122;2024-03-25T11:26:43;19.84;62.96
67275;DHT22;55463;52.324;5.122;2024-03-25T11:29:09;19.91;61.90
67275;DHT22;55463;52.324;5.122;2024-03-25T11:31:38;19.55;61.48
67275;DHT22;55463;52.324;5.122;2024-03-25T11:34:04;19.10;62.80
67275;DHT22;55463;52.324;5.122;2024-03-25T11:36:30;18.41;60.76
67275;DHT22;55463;52.324;5.122;2024-03-25T11:41:26;18.53;63.68
67275;DHT22;55463;52.324;5.122;2024-03-25T11:43:51;19.07;63.78
67275;DHT22;55463;52.324;5.122;2024-03-25T11:46:18;19.36;64.04
67275;DHT22;55463;52.324;5.122;2024-03-25T11:48:44;19.69;64.16
67275;DHT22;55463;52.324;5.122;2024-03-25T11:51:12;19.51;62.84
67275;DHT22;55463;52.324;5.122;2024-03-25T11:53:38;19.38;63.50
67275;DHT22;55463;52.324;5.122;2024-03-25T11:56:03;19.80;64.18
67275;DHT22;55463;52.324;5.122;2024-03-25T11:58:29;20.39;64.99
67275;DHT22;55463;52.324;5.122;2024-03-25T12:00:54;20.65;61.82
67275;DHT22;55463;52.324;5.122;2024-03-25T12:03:22;20.08;59.97
67275;DHT22;55463;52.324;5.122;2024-03-25T12:05:47;19.69;61.17
67275;DHT22;55463;52.324;5.122;2024-03-25T12:08:12;19.21;59.98
67275;DHT22;55463;52.324;5.122;2024-03-25T12:10:38;18.84;58.12
67275;DHT22;55463;52.324;5.122;2024-03-25T12:13:23;19.22;62.78
67275;DHT22;55463;52.324;5.122;2024-03-25T12:15:53;19.41;62.42
67275;DHT22;55463;52.324;5.122;2024-03-25T12:18:18;19.53;60.75
67275;DHT22;55463;52.324;5.122;2024-03-25T12:20:47;19.24;61.71
67275;DHT22;55463;52.324;5.122;2024-03-25T12:23:13;19.10;61.11
67275;DHT22;55463;52.324;5.122;2024-03-25T12:25:38;19.15;59.64
67275;DHT22;55463;52.324;5.122;2024-03-25T12:28:10;19.38;60.26
67275;DHT22;55463;52.324;5.122;2024-03-25T12:30:51;19.58;60.65
67275;DHT22;55463;52.324;5.122;2024-03-25T12:33:17;19.87;59.91
67275;DHT22;55463;52.324;5.122;2024-03-25T12:35:46;20.11;61.05
67275;DHT22;55463;52.324;5.122;2024-03-25T12:38:30;20.21;59.53
67275;DHT22;55463;52.324;5.122;2024-03-25T12:41:12;20.17;57.44
67275;DHT22;55463;52.324;5.122;2024-03-25T12:43:44;19.93;58.37
67275;DHT22;55463;52.324;5.122;2024-03-25T12:46:11;19.48;60.10
67275;DHT22;55463;52.324;5.122;2024-03-25T12:48:37;19.63;61.69
67275;DHT22;55463;52.324;5.122;2024-03-25T12:51:03;19.46;59.97
67275;DHT22;55463;52.324;5.122;2024-03-25T12:53:28;19.83;62.22
67275;DHT22;55463;52.324;5.122;2024-03-25T12:55:54;20.04;59.92
67275;DHT22;55463;52.324;5.122;2024-03-25T12:58:19;20.29;60.82
67275;DHT22;55463;52.324;5.122;2024-03-25T13:00:45;20.07;60.79
67275;DHT22;55463;52.324;5.122;2024-03-25T13:03:10;19.79;59.26
67275;DHT22;55463;52.324;5.122;2024-03-25T13:05:36;19.59;60.03
67275;DHT22;55463;52.324;5.122;2024-03-25T13:08:02;19.42;60.82
67275;DHT22;55463;52.324;5.122;2024-03-25T13:10:29;19.44;60.53
67275;DHT22;55463;52.324;5.122;2024-03-25T13:12:55;19.14;60.30
67275;DHT22;55463;52.324;5.122;2024-03-25T13:15:20;18.80;61.45
67275;DHT22;55463;52.324;5.122;2024-03-25T13:17:46;18.44;61.43
67275;DHT22;55463;52.324;5.122;2024-03-25T13:20:12;18.12;61.36
67275;DHT22;55463;52.324;5.122;2024-03-25T13:22:37;18.07;61.38
67275;DHT22;55463;52.324;5.122;2024-03-25T13:25:03;18.36;62.08
67275;DHT22;55463;52.324;5.122;2024-03-25T13:27:29;18.66;62.31
67275;DHT22;55463;52.324;5.122;2024-03-25T13:29:57;18.29;59.55
67275;DHT22;55463;52.324;5.122;2024-03-25T13:32:23;17.96;59.50
67275;DHT22;55463;52.324;5.122;2024-03-25T13:34:49;17.63;61.09
67275;DHT22;55463;52.324;5.122;2024-03-25T13:37:15;17.25;61.37
67275;DHT22;55463;52.324;5.122;2024-03-25T13:39:40;17.12;61.64
67275;DHT22;55463;52.324;5.122;2024-03-25T13:42:05;17.14;63.69
67275;DHT22;55463;52.324;5.122;2024-03-25T13:44:31;16.95;61.47
67275;DHT22;55463;52.324;5.122;2024-03-25T13:46:56;16.95;61.79
67275;DHT22;55463;52.324;5.122;2024-03-25T13:49:22;16.87;62.41
67275;DHT22;55463;52.324;5.122;2024-03-25T13:51:51;16.88;63.38
67275;DHT22;55463;52.324;5.122;2024-03-25T13:54:21;17.34;63.49
67275;DHT22;55463;52.324;5.122;2024-03-25T13:56:46;17.93;64.14
67275;DHT22;55463;52.324;5.122;2024-03-25T13:59:12;18.39;62.08
67275;DHT22;55463;52.324;5.122;2024-03-25T14:01:37;18.49;59.78
67275;DHT22;55463;52.324;5.122;2024-03-25T14:04:03;18.84;61.96
67275;DHT22;55463;52.324;5.122;2024-03-25T14:06:29;19.11;61.24
67275;DHT22;55463;52.324;5.122;2024-03-25T14:08:54;19.39;61.33
67275;DHT22;55463;52.324;5.122;2024-03-25T14:11:20;19.31;59.02
67275;DHT22;55463;52.324;5.122;2024-03-25T14:13:45;19.24;58.48
67275;DHT22;55463;52.324;5.122;2024-03-25T14:16:11;19.17;58.04
67275;DHT22;55463;52.324;5.122;2024-03-25T14:18:36;19.12;56.10
67275;DHT22;55463;52.324;5.122;2024-03-25T14:21:02;19.18;59.56
67275;DHT22;55463;52.324;5.122;2024-03-25T14:23:27;19.21;58.95
67275;DHT22;55463;52.324;5.122;2024-03-25T14:25:52;19.07;58.72
67275;DHT22;55463;52.324;5.122;2024-03-25T14:28:18;19.19;59.48
67275;DHT22;55463;52.324;5.122;2024-03-25T14:30:43;19.15;59.60
67275;DHT22;55463;52.324;5.122;2024-03-25T14:33:09;19.19;59.01
67275;DHT22;55463;52.324;5.122;2024-03-25T14:35:35;19.22;58.08
67275;DHT22;55463;52.324;5.122;2024-03-25T14:38:00;19.15;57.85
67275;DHT22;55463;52.324;5.122;2024-03-25T14:40:26;19.22;60.30
67275;DHT22;55463;52.324;5.122;2024-03-25T14:42:51;19.15;58.55
67275;DHT22;55463;52.324;5.122;2024-03-25T14:45:17;19.14;59.16
67275;DHT22;55463;52.324;5.122;2024-03-25T14:47:42;19.15;58.60
67275;DHT22;55463;52.324;5.122;2024-03-25T14:50:08;19.15;59.28
67275;DHT22;55463;52.324;5.122;2024-03-25T14:52:33;19.14;58.99
67275;DHT22;55463;52.324;5.122;2024-03-25T14:54:59;19.10;58.09
67275;DHT22;55463;52.324;5.122;2024-03-25T14:57:24;19.08;58.00
67275;DHT22;55463;52.324;5.122;2024-03-25T14:59:49;19.18;59.11
67275;DHT22;55463;52.324;5.122;2024-03-25T15:02:15;18.83;57.52
67275;DHT22;55463;52.324;5.122;2024-03-25T15:04:41;18.89;57.00
67275;DHT22;55463;52.324;5.122;2024-03-25T15:07:10;18.12;54.64
67275;DHT22;55463;52.324;5.122;2024-03-25T15:09:35;18.25;54.09
67275;DHT22;55463;52.324;5.122;2024-03-25T15:12:01;18.44;56.91
67275;DHT22;55463;52.324;5.122;2024-03-25T15:14:29;18.48;56.53
67275;DHT22;55463;52.324;5.122;2024-03-25T15:16:58;18.31;58.18
67275;DHT22;55463;52.324;5.122;2024-03-25T15:19:25;18.15;57.67
67275;DHT22;55463;52.324;5.122;2024-03-25T15:21:51;18.19;59.51
67275;DHT22;55463;52.324;5.122;2024-03-25T15:24:16;18.10;59.11
67275;DHT22;55463;52.324;5.122;2024-03-25T15:26:42;17.73;57.61
67275;DHT22;55463;52.324;5.122;2024-03-25T15:29:07;17.52;59.76
67275;DHT22;55463;52.324;5.122;2024-03-25T15:31:33;17.38;59.52
67275;DHT22;55463;52.324;5.122;2024-03-25T15:33:59;17.15;61.27
67275;DHT22;55463;52.324;5.122;2024-03-25T15:36:25;16.99;59.92